Terminal Aerodrome Forecast
Issued by NWS

Home | Current Version | Previous Version | Text Only | Print | Product List | Glossary On
Versions: 1 2 3 4 5 6 7 8 9 10 11 12
000
FTUS42 KMLB 180524
TAFSUA
TAF
KSUA 180524Z 1806/1906 00000KT P6SM SCT060
     FM181500 20008KT P6SM SCT025 BKN250
     FM181800 10008KT P6SM SCT035
     FM182300 VRB03KT P6SM FEW025=

USA.gov is the U.S. government's official web portal to all federal, state and local government web resources and services.